Etusivu
METAR-TAF:

METAR-TAF

Lentoasemat :

Lannion, Ranska

Leveyspiiri: 48-45N, Pituuspiiri: 003-28W, korkeus merenpinnasta: 89 m

Tämänhetkinen sää

Tämä raportti tehtiin 29 minuuttia sitten, kello 18.00 UTC
Tuuli 10 kn luoteesta
Lämpötila 9°C
Kosteus 61%
Ilmanpaine 1006 hPa
Näkyvyys 10 km tai enemmän
Muutamia pilviä 3700 ft:n korkeudessa

METAR: LFRO 121800Z AUTO 31010KT 9999 FEW037 09/02 Q1006

Aika: 19:29 (18:29 UTC)


TAF: puuttuu

Säähavainnot ja -ennusteet yli 4000 lentoasemalta (METAR- ja TAF-raportit).

Käytössä olevat sääasemat on merkitty karttaan keltaisilla ja punaisilla pisteillä.

Aseta hiiri pisteen päälle nähdäksesi sääaseman nimen.

Klikkaa sitten nähdäksesi säähavainnot ja -ennusteet.

Kartan vaihtaminen: klikkaa mustalla rastilla varustettuja vihreitä pisteitä, niin voit zoomata sisään; viivalla varustettua vihreää pistettä, niin voit zoomata ulos tai vihreitä nuolia, niin pääset viereisille kartoille.


METAR-TAF: